sensor_id;sensor_type;location;lat;lon;timestamp;P1;durP1;ratioP1;P2;durP2;ratioP2
49858;SDS011;35756;52.346;13.622;2022-08-06T00:01:07;2.03;;;1.40;;
49858;SDS011;35756;52.346;13.622;2022-08-06T00:03:32;1.77;;;1.50;;
49858;SDS011;35756;52.346;13.622;2022-08-06T00:05:58;2.45;;;1.63;;
49858;SDS011;35756;52.346;13.622;2022-08-06T00:08:23;2.00;;;1.50;;
49858;SDS011;35756;52.346;13.622;2022-08-06T00:10:48;2.13;;;1.58;;
49858;SDS011;35756;52.346;13.622;2022-08-06T00:13:13;2.67;;;1.48;;
49858;SDS011;35756;52.346;13.622;2022-08-06T00:15:39;1.92;;;1.45;;
49858;SDS011;35756;52.346;13.622;2022-08-06T00:18:04;1.63;;;1.45;;
49858;SDS011;35756;52.346;13.622;2022-08-06T00:20:29;1.63;;;1.27;;
49858;SDS011;35756;52.346;13.622;2022-08-06T00:22:55;1.88;;;1.30;;
49858;SDS011;35756;52.346;13.622;2022-08-06T00:25:20;1.80;;;1.40;;
49858;SDS011;35756;52.346;13.622;2022-08-06T00:27:46;2.72;;;1.50;;
49858;SDS011;35756;52.346;13.622;2022-08-06T00:30:11;2.00;;;1.45;;
49858;SDS011;35756;52.346;13.622;2022-08-06T00:32:36;1.63;;;1.45;;
49858;SDS011;35756;52.346;13.622;2022-08-06T00:35:02;2.83;;;1.75;;
49858;SDS011;35756;52.346;13.622;2022-08-06T00:37:28;2.63;;;1.40;;
49858;SDS011;35756;52.346;13.622;2022-08-06T00:39:57;1.65;;;1.50;;
49858;SDS011;35756;52.346;13.622;2022-08-06T00:42:24;1.55;;;1.30;;
49858;SDS011;35756;52.346;13.622;2022-08-06T00:44:49;1.55;;;1.20;;
49858;SDS011;35756;52.346;13.622;2022-08-06T00:47:15;1.75;;;1.30;;
49858;SDS011;35756;52.346;13.622;2022-08-06T00:49:40;1.77;;;1.50;;
49858;SDS011;35756;52.346;13.622;2022-08-06T00:52:05;1.77;;;1.50;;
49858;SDS011;35756;52.346;13.622;2022-08-06T00:54:31;1.88;;;1.30;;
49858;SDS011;35756;52.346;13.622;2022-08-06T00:56:56;1.20;;;1.10;;
49858;SDS011;35756;52.346;13.622;2022-08-06T00:59:21;1.58;;;1.13;;
49858;SDS011;35756;52.346;13.622;2022-08-06T01:01:47;1.58;;;1.30;;
49858;SDS011;35756;52.346;13.622;2022-08-06T01:04:12;2.22;;;1.20;;
49858;SDS011;35756;52.346;13.622;2022-08-06T01:06:37;3.00;;;1.20;;
49858;SDS011;35756;52.346;13.622;2022-08-06T01:09:03;1.92;;;1.33;;
49858;SDS011;35756;52.346;13.622;2022-08-06T01:11:28;0.95;;;0.95;;
49858;SDS011;35756;52.346;13.622;2022-08-06T01:13:54;1.95;;;1.30;;
49858;SDS011;35756;52.346;13.622;2022-08-06T01:16:22;1.25;;;1.15;;
49858;SDS011;35756;52.346;13.622;2022-08-06T01:18:55;2.08;;;1.23;;
49858;SDS011;35756;52.346;13.622;2022-08-06T01:21:38;2.03;;;1.27;;
49858;SDS011;35756;52.346;13.622;2022-08-06T01:24:33;2.63;;;1.27;;
49858;SDS011;35756;52.346;13.622;2022-08-06T01:27:25;1.50;;;1.25;;
49858;SDS011;35756;52.346;13.622;2022-08-06T01:30:11;1.20;;;1.10;;
49858;SDS011;35756;52.346;13.622;2022-08-06T01:32:42;1.67;;;1.15;;
49858;SDS011;35756;52.346;13.622;2022-08-06T01:35:12;1.33;;;1.20;;
49858;SDS011;35756;52.346;13.622;2022-08-06T01:37:42;1.10;;;1.00;;
49858;SDS011;35756;52.346;13.622;2022-08-06T01:40:13;1.77;;;1.20;;
49858;SDS011;35756;52.346;13.622;2022-08-06T01:42:40;1.10;;;1.00;;
49858;SDS011;35756;52.346;13.622;2022-08-06T01:45:09;1.40;;;0.98;;
49858;SDS011;35756;52.346;13.622;2022-08-06T01:47:36;1.58;;;1.10;;
49858;SDS011;35756;52.346;13.622;2022-08-06T01:50:04;1.17;;;1.00;;
49858;SDS011;35756;52.346;13.622;2022-08-06T01:52:35;1.10;;;1.00;;
49858;SDS011;35756;52.346;13.622;2022-08-06T01:55:02;1.30;;;1.00;;
49858;SDS011;35756;52.346;13.622;2022-08-06T01:57:28;0.98;;;0.93;;
49858;SDS011;35756;52.346;13.622;2022-08-06T01:59:57;1.15;;;1.05;;
49858;SDS011;35756;52.346;13.622;2022-08-06T02:02:23;1.23;;;1.13;;
49858;SDS011;35756;52.346;13.622;2022-08-06T02:04:50;1.10;;;1.00;;
49858;SDS011;35756;52.346;13.622;2022-08-06T02:07:17;1.33;;;0.95;;
49858;SDS011;35756;52.346;13.622;2022-08-06T02:09:44;1.33;;;1.13;;
49858;SDS011;35756;52.346;13.622;2022-08-06T02:12:12;1.90;;;1.20;;
49858;SDS011;35756;52.346;13.622;2022-08-06T02:14:40;2.53;;;1.05;;
49858;SDS011;35756;52.346;13.622;2022-08-06T02:17:10;0.98;;;0.98;;
49858;SDS011;35756;52.346;13.622;2022-08-06T02:19:36;1.52;;;1.10;;
49858;SDS011;35756;52.346;13.622;2022-08-06T02:22:02;1.08;;;1.00;;
49858;SDS011;35756;52.346;13.622;2022-08-06T02:24:28;1.13;;;0.77;;
49858;SDS011;35756;52.346;13.622;2022-08-06T02:26:54;1.17;;;1.00;;
49858;SDS011;35756;52.346;13.622;2022-08-06T02:29:20;1.00;;;1.00;;
49858;SDS011;35756;52.346;13.622;2022-08-06T02:31:46;0.98;;;0.90;;
49858;SDS011;35756;52.346;13.622;2022-08-06T02:34:12;3.10;;;1.08;;
49858;SDS011;35756;52.346;13.622;2022-08-06T02:36:44;1.50;;;1.20;;
49858;SDS011;35756;52.346;13.622;2022-08-06T02:39:14;1.75;;;1.08;;
49858;SDS011;35756;52.346;13.622;2022-08-06T02:41:49;1.75;;;1.25;;
49858;SDS011;35756;52.346;13.622;2022-08-06T02:44:46;1.05;;;1.00;;
49858;SDS011;35756;52.346;13.622;2022-08-06T02:47:23;0.90;;;0.90;;
49858;SDS011;35756;52.346;13.622;2022-08-06T02:49:55;0.95;;;0.90;;
49858;SDS011;35756;52.346;13.622;2022-08-06T02:52:28;1.02;;;0.93;;
49858;SDS011;35756;52.346;13.622;2022-08-06T02:54:56;1.13;;;1.00;;
49858;SDS011;35756;52.346;13.622;2022-08-06T02:57:32;0.98;;;0.90;;
49858;SDS011;35756;52.346;13.622;2022-08-06T03:00:00;1.63;;;1.10;;
49858;SDS011;35756;52.346;13.622;2022-08-06T03:02:28;1.38;;;1.27;;
49858;SDS011;35756;52.346;13.622;2022-08-06T03:04:54;2.20;;;1.30;;
49858;SDS011;35756;52.346;13.622;2022-08-06T03:07:21;2.40;;;1.20;;
49858;SDS011;35756;52.346;13.622;2022-08-06T03:09:48;1.30;;;0.90;;
49858;SDS011;35756;52.346;13.622;2022-08-06T03:12:14;2.67;;;1.00;;
49858;SDS011;35756;52.346;13.622;2022-08-06T03:14:40;1.38;;;1.20;;
49858;SDS011;35756;52.346;13.622;2022-08-06T03:17:06;1.25;;;1.02;;
49858;SDS011;35756;52.346;13.622;2022-08-06T03:19:32;1.98;;;1.05;;
49858;SDS011;35756;52.346;13.622;2022-08-06T03:21:57;1.95;;;1.08;;
49858;SDS011;35756;52.346;13.622;2022-08-06T03:24:23;0.90;;;0.90;;
49858;SDS011;35756;52.346;13.622;2022-08-06T03:26:50;1.15;;;0.90;;
49858;SDS011;35756;52.346;13.622;2022-08-06T03:29:16;0.80;;;0.80;;
49858;SDS011;35756;52.346;13.622;2022-08-06T03:31:42;1.27;;;0.90;;
49858;SDS011;35756;52.346;13.622;2022-08-06T03:34:08;0.95;;;0.90;;
49858;SDS011;35756;52.346;13.622;2022-08-06T03:36:34;0.90;;;0.90;;
49858;SDS011;35756;52.346;13.622;2022-08-06T03:39:06;1.90;;;1.10;;
49858;SDS011;35756;52.346;13.622;2022-08-06T03:41:34;2.70;;;1.35;;
49858;SDS011;35756;52.346;13.622;2022-08-06T03:44:00;2.13;;;0.95;;
49858;SDS011;35756;52.346;13.622;2022-08-06T03:46:27;1.17;;;0.90;;
49858;SDS011;35756;52.346;13.622;2022-08-06T03:48:56;2.00;;;1.13;;
49858;SDS011;35756;52.346;13.622;2022-08-06T03:51:25;1.25;;;0.70;;
49858;SDS011;35756;52.346;13.622;2022-08-06T03:53:51;2.20;;;0.98;;
49858;SDS011;35756;52.346;13.622;2022-08-06T03:56:22;1.05;;;0.80;;
49858;SDS011;35756;52.346;13.622;2022-08-06T03:58:49;1.13;;;1.02;;
49858;SDS011;35756;52.346;13.622;2022-08-06T04:01:16;1.77;;;0.95;;
49858;SDS011;35756;52.346;13.622;2022-08-06T04:03:43;1.20;;;1.10;;
49858;SDS011;35756;52.346;13.622;2022-08-06T04:06:09;1.27;;;0.80;;
49858;SDS011;35756;52.346;13.622;2022-08-06T04:08:36;2.08;;;1.20;;
49858;SDS011;35756;52.346;13.622;2022-08-06T04:11:03;2.17;;;0.90;;
49858;SDS011;35756;52.346;13.622;2022-08-06T04:13:29;1.77;;;1.08;;
49858;SDS011;35756;52.346;13.622;2022-08-06T04:15:54;1.85;;;1.00;;
49858;SDS011;35756;52.346;13.622;2022-08-06T04:18:22;1.10;;;0.90;;
49858;SDS011;35756;52.346;13.622;2022-08-06T04:20:50;1.08;;;1.00;;
49858;SDS011;35756;52.346;13.622;2022-08-06T04:23:17;0.82;;;0.80;;
49858;SDS011;35756;52.346;13.622;2022-08-06T04:25:54;1.10;;;1.00;;
49858;SDS011;35756;52.346;13.622;2022-08-06T04:28:20;1.95;;;0.93;;
49858;SDS011;35756;52.346;13.622;2022-08-06T04:30:47;1.02;;;1.02;;
49858;SDS011;35756;52.346;13.622;2022-08-06T04:33:13;1.13;;;0.90;;
49858;SDS011;35756;52.346;13.622;2022-08-06T04:35:40;1.70;;;1.10;;
49858;SDS011;35756;52.346;13.622;2022-08-06T04:38:06;2.20;;;0.90;;
49858;SDS011;35756;52.346;13.622;2022-08-06T04:40:32;1.15;;;0.85;;
49858;SDS011;35756;52.346;13.622;2022-08-06T04:42:58;3.25;;;0.98;;
49858;SDS011;35756;52.346;13.622;2022-08-06T04:45:23;1.08;;;0.98;;
49858;SDS011;35756;52.346;13.622;2022-08-06T04:47:49;1.27;;;1.02;;
49858;SDS011;35756;52.346;13.622;2022-08-06T04:50:15;0.80;;;0.80;;
49858;SDS011;35756;52.346;13.622;2022-08-06T04:52:40;0.73;;;0.73;;
49858;SDS011;35756;52.346;13.622;2022-08-06T04:55:06;2.60;;;1.02;;
49858;SDS011;35756;52.346;13.622;2022-08-06T04:57:31;1.23;;;0.80;;
49858;SDS011;35756;52.346;13.622;2022-08-06T04:59:57;1.05;;;0.85;;
49858;SDS011;35756;52.346;13.622;2022-08-06T05:02:22;1.00;;;0.90;;
49858;SDS011;35756;52.346;13.622;2022-08-06T05:04:47;2.25;;;1.02;;
49858;SDS011;35756;52.346;13.622;2022-08-06T05:07:21;1.02;;;0.93;;
49858;SDS011;35756;52.346;13.622;2022-08-06T05:09:47;1.55;;;0.90;;
49858;SDS011;35756;52.346;13.622;2022-08-06T05:15:03;1.42;;;0.90;;
49858;SDS011;35756;52.346;13.622;2022-08-06T05:17:33;1.65;;;1.00;;
49858;SDS011;35756;52.346;13.622;2022-08-06T05:20:20;0.80;;;0.80;;
49858;SDS011;35756;52.346;13.622;2022-08-06T05:22:49;1.55;;;0.82;;
49858;SDS011;35756;52.346;13.622;2022-08-06T05:25:17;1.80;;;1.00;;
49858;SDS011;35756;52.346;13.622;2022-08-06T05:27:42;1.58;;;0.90;;
49858;SDS011;35756;52.346;13.622;2022-08-06T05:30:08;1.13;;;1.02;;
49858;SDS011;35756;52.346;13.622;2022-08-06T05:32:47;1.33;;;1.00;;
49858;SDS011;35756;52.346;13.622;2022-08-06T05:35:13;1.23;;;1.05;;
49858;SDS011;35756;52.346;13.622;2022-08-06T05:37:39;1.38;;;0.93;;
49858;SDS011;35756;52.346;13.622;2022-08-06T05:40:05;0.90;;;0.90;;
49858;SDS011;35756;52.346;13.622;2022-08-06T05:42:31;1.10;;;1.00;;
49858;SDS011;35756;52.346;13.622;2022-08-06T05:44:56;1.20;;;1.10;;
49858;SDS011;35756;52.346;13.622;2022-08-06T05:47:23;1.70;;;1.25;;
49858;SDS011;35756;52.346;13.622;2022-08-06T05:49:52;2.38;;;1.00;;
49858;SDS011;35756;52.346;13.622;2022-08-06T05:52:25;1.20;;;1.08;;
49858;SDS011;35756;52.346;13.622;2022-08-06T05:54:54;1.42;;;1.10;;
49858;SDS011;35756;52.346;13.622;2022-08-06T05:57:24;1.30;;;1.20;;
49858;SDS011;35756;52.346;13.622;2022-08-06T05:59:54;1.02;;;0.93;;
49858;SDS011;35756;52.346;13.622;2022-08-06T06:02:23;2.03;;;1.10;;
49858;SDS011;35756;52.346;13.622;2022-08-06T06:04:49;1.58;;;1.13;;
49858;SDS011;35756;52.346;13.622;2022-08-06T06:07:15;1.50;;;1.10;;
49858;SDS011;35756;52.346;13.622;2022-08-06T06:09:41;1.42;;;1.08;;
49858;SDS011;35756;52.346;13.622;2022-08-06T06:12:06;1.63;;;1.20;;
49858;SDS011;35756;52.346;13.622;2022-08-06T06:14:42;1.13;;;1.02;;
49858;SDS011;35756;52.346;13.622;2022-08-06T06:19:46;1.25;;;1.10;;
49858;SDS011;35756;52.346;13.622;2022-08-06T06:22:23;2.00;;;1.10;;
49858;SDS011;35756;52.346;13.622;2022-08-06T06:24:54;1.52;;;1.20;;
49858;SDS011;35756;52.346;13.622;2022-08-06T06:27:29;1.38;;;1.05;;
49858;SDS011;35756;52.346;13.622;2022-08-06T06:30:06;3.30;;;1.40;;
49858;SDS011;35756;52.346;13.622;2022-08-06T06:35:44;3.42;;;1.38;;
49858;SDS011;35756;52.346;13.622;2022-08-06T06:41:08;1.30;;;1.10;;
49858;SDS011;35756;52.346;13.622;2022-08-06T06:43:49;0.88;;;0.88;;
49858;SDS011;35756;52.346;13.622;2022-08-06T06:46:35;2.72;;;1.00;;
49858;SDS011;35756;52.346;13.622;2022-08-06T06:49:06;1.52;;;1.13;;
49858;SDS011;35756;52.346;13.622;2022-08-06T06:51:41;1.73;;;1.17;;
49858;SDS011;35756;52.346;13.622;2022-08-06T06:54:09;1.30;;;1.20;;
49858;SDS011;35756;52.346;13.622;2022-08-06T06:56:39;2.15;;;1.17;;
49858;SDS011;35756;52.346;13.622;2022-08-06T06:59:09;1.45;;;0.95;;
49858;SDS011;35756;52.346;13.622;2022-08-06T07:01:38;1.27;;;1.00;;
49858;SDS011;35756;52.346;13.622;2022-08-06T07:04:05;1.20;;;1.00;;
49858;SDS011;35756;52.346;13.622;2022-08-06T07:06:32;0.95;;;0.90;;
49858;SDS011;35756;52.346;13.622;2022-08-06T07:08:57;4.32;;;1.50;;
49858;SDS011;35756;52.346;13.622;2022-08-06T07:11:24;7.00;;;2.92;;
49858;SDS011;35756;52.346;13.622;2022-08-06T07:13:50;6.43;;;1.60;;
49858;SDS011;35756;52.346;13.622;2022-08-06T07:16:17;5.13;;;1.67;;
49858;SDS011;35756;52.346;13.622;2022-08-06T07:18:43;5.53;;;1.55;;
49858;SDS011;35756;52.346;13.622;2022-08-06T07:21:09;3.53;;;1.27;;
49858;SDS011;35756;52.346;13.622;2022-08-06T07:23:38;2.40;;;1.30;;
49858;SDS011;35756;52.346;13.622;2022-08-06T07:26:03;4.38;;;1.27;;
49858;SDS011;35756;52.346;13.622;2022-08-06T07:28:29;3.40;;;1.40;;
49858;SDS011;35756;52.346;13.622;2022-08-06T07:30:56;2.15;;;1.42;;
49858;SDS011;35756;52.346;13.622;2022-08-06T07:33:22;4.50;;;1.20;;
49858;SDS011;35756;52.346;13.622;2022-08-06T07:35:49;1.27;;;1.17;;
49858;SDS011;35756;52.346;13.622;2022-08-06T07:38:16;2.45;;;1.20;;
49858;SDS011;35756;52.346;13.622;2022-08-06T07:40:43;2.50;;;1.40;;
49858;SDS011;35756;52.346;13.622;2022-08-06T07:43:12;3.50;;;1.63;;
49858;SDS011;35756;52.346;13.622;2022-08-06T07:45:39;3.75;;;1.15;;
49858;SDS011;35756;52.346;13.622;2022-08-06T07:48:05;2.58;;;1.20;;
49858;SDS011;35756;52.346;13.622;2022-08-06T07:50:33;2.63;;;1.10;;
49858;SDS011;35756;52.346;13.622;2022-08-06T07:52:58;0.90;;;0.90;;
49858;SDS011;35756;52.346;13.622;2022-08-06T07:55:24;1.38;;;1.00;;
49858;SDS011;35756;52.346;13.622;2022-08-06T07:57:53;2.78;;;1.30;;
49858;SDS011;35756;52.346;13.622;2022-08-06T08:00:19;2.03;;;1.10;;
49858;SDS011;35756;52.346;13.622;2022-08-06T08:02:45;4.35;;;2.03;;
49858;SDS011;35756;52.346;13.622;2022-08-06T08:05:30;1.45;;;1.05;;
49858;SDS011;35756;52.346;13.622;2022-08-06T08:08:14;2.22;;;1.10;;
49858;SDS011;35756;52.346;13.622;2022-08-06T08:10:40;1.65;;;1.15;;
49858;SDS011;35756;52.346;13.622;2022-08-06T08:13:06;1.05;;;0.82;;
49858;SDS011;35756;52.346;13.622;2022-08-06T08:15:32;0.95;;;0.90;;
49858;SDS011;35756;52.346;13.622;2022-08-06T08:17:58;2.53;;;1.10;;
49858;SDS011;35756;52.346;13.622;2022-08-06T08:20:23;1.30;;;0.90;;
49858;SDS011;35756;52.346;13.622;2022-08-06T08:22:53;1.50;;;0.98;;
49858;SDS011;35756;52.346;13.622;2022-08-06T08:25:18;3.17;;;1.10;;
49858;SDS011;35756;52.346;13.622;2022-08-06T08:27:43;2.85;;;1.40;;
49858;SDS011;35756;52.346;13.622;2022-08-06T08:30:09;5.40;;;1.70;;
49858;SDS011;35756;52.346;13.622;2022-08-06T08:32:35;12.85;;;2.10;;
49858;SDS011;35756;52.346;13.622;2022-08-06T08:35:01;7.85;;;2.00;;
49858;SDS011;35756;52.346;13.622;2022-08-06T08:37:26;4.47;;;1.20;;
49858;SDS011;35756;52.346;13.622;2022-08-06T08:39:51;3.72;;;1.25;;
49858;SDS011;35756;52.346;13.622;2022-08-06T08:42:22;7.03;;;1.30;;
49858;SDS011;35756;52.346;13.622;2022-08-06T08:44:52;2.15;;;1.10;;
49858;SDS011;35756;52.346;13.622;2022-08-06T08:47:19;3.50;;;1.38;;
49858;SDS011;35756;52.346;13.622;2022-08-06T08:49:46;3.47;;;1.00;;
49858;SDS011;35756;52.346;13.622;2022-08-06T08:52:13;2.70;;;1.27;;
49858;SDS011;35756;52.346;13.622;2022-08-06T08:54:41;2.28;;;1.30;;
49858;SDS011;35756;52.346;13.622;2022-08-06T08:57:10;5.72;;;1.58;;
49858;SDS011;35756;52.346;13.622;2022-08-06T08:59:36;2.28;;;1.55;;
49858;SDS011;35756;52.346;13.622;2022-08-06T09:02:01;2.75;;;1.10;;
49858;SDS011;35756;52.346;13.622;2022-08-06T09:04:30;2.28;;;1.20;;
49858;SDS011;35756;52.346;13.622;2022-08-06T09:06:56;3.10;;;1.63;;
49858;SDS011;35756;52.346;13.622;2022-08-06T09:09:21;2.38;;;1.40;;
49858;SDS011;35756;52.346;13.622;2022-08-06T09:11:47;2.53;;;1.60;;
49858;SDS011;35756;52.346;13.622;2022-08-06T09:14:13;2.50;;;1.40;;
49858;SDS011;35756;52.346;13.622;2022-08-06T09:16:38;1.90;;;1.17;;
49858;SDS011;35756;52.346;13.622;2022-08-06T09:19:04;2.38;;;1.30;;
49858;SDS011;35756;52.346;13.622;2022-08-06T09:21:30;3.70;;;1.23;;
49858;SDS011;35756;52.346;13.622;2022-08-06T09:23:57;4.47;;;1.13;;
49858;SDS011;35756;52.346;13.622;2022-08-06T09:26:22;6.22;;;1.55;;
49858;SDS011;35756;52.346;13.622;2022-08-06T09:28:47;4.43;;;1.40;;
49858;SDS011;35756;52.346;13.622;2022-08-06T09:31:15;3.75;;;1.20;;
49858;SDS011;35756;52.346;13.622;2022-08-06T09:33:44;2.80;;;1.17;;
49858;SDS011;35756;52.346;13.622;2022-08-06T09:36:21;1.75;;;1.15;;
49858;SDS011;35756;52.346;13.622;2022-08-06T09:38:47;1.95;;;1.10;;
49858;SDS011;35756;52.346;13.622;2022-08-06T09:41:14;2.53;;;1.20;;
49858;SDS011;35756;52.346;13.622;2022-08-06T09:43:41;1.88;;;1.13;;
49858;SDS011;35756;52.346;13.622;2022-08-06T09:46:08;2.85;;;1.33;;
49858;SDS011;35756;52.346;13.622;2022-08-06T09:48:33;4.55;;;1.50;;
49858;SDS011;35756;52.346;13.622;2022-08-06T09:50:59;3.10;;;1.10;;
49858;SDS011;35756;52.346;13.622;2022-08-06T09:53:25;5.05;;;1.27;;
49858;SDS011;35756;52.346;13.622;2022-08-06T09:55:52;2.97;;;1.33;;
49858;SDS011;35756;52.346;13.622;2022-08-06T09:58:29;2.55;;;1.20;;
49858;SDS011;35756;52.346;13.622;2022-08-06T10:00:55;1.73;;;1.10;;
49858;SDS011;35756;52.346;13.622;2022-08-06T10:03:21;2.47;;;1.20;;
49858;SDS011;35756;52.346;13.622;2022-08-06T10:05:46;1.70;;;1.05;;
49858;SDS011;35756;52.346;13.622;2022-08-06T10:08:12;0.82;;;0.80;;
49858;SDS011;35756;52.346;13.622;2022-08-06T10:10:42;2.92;;;1.40;;
49858;SDS011;35756;52.346;13.622;2022-08-06T10:13:22;2.40;;;0.90;;
49858;SDS011;35756;52.346;13.622;2022-08-06T10:15:50;1.75;;;1.05;;
49858;SDS011;35756;52.346;13.622;2022-08-06T10:18:33;3.35;;;1.45;;
49858;SDS011;35756;52.346;13.622;2022-08-06T10:21:04;1.17;;;0.90;;
49858;SDS011;35756;52.346;13.622;2022-08-06T10:23:40;1.42;;;1.00;;
49858;SDS011;35756;52.346;13.622;2022-08-06T10:26:08;2.33;;;1.10;;
49858;SDS011;35756;52.346;13.622;2022-08-06T10:28:36;1.10;;;0.90;;
49858;SDS011;35756;52.346;13.622;2022-08-06T10:31:03;2.00;;;1.10;;
49858;SDS011;35756;52.346;13.622;2022-08-06T10:33:31;1.25;;;0.90;;
49858;SDS011;35756;52.346;13.622;2022-08-06T10:35:59;2.92;;;1.05;;
49858;SDS011;35756;52.346;13.622;2022-08-06T10:38:28;0.90;;;0.80;;
49858;SDS011;35756;52.346;13.622;2022-08-06T10:40:54;3.35;;;0.90;;
49858;SDS011;35756;52.346;13.622;2022-08-06T10:43:21;1.10;;;0.93;;
49858;SDS011;35756;52.346;13.622;2022-08-06T10:45:47;1.70;;;0.73;;
49858;SDS011;35756;52.346;13.622;2022-08-06T10:48:13;1.48;;;0.93;;
49858;SDS011;35756;52.346;13.622;2022-08-06T10:50:40;2.60;;;1.08;;
49858;SDS011;35756;52.346;13.622;2022-08-06T10:53:05;3.65;;;1.10;;
49858;SDS011;35756;52.346;13.622;2022-08-06T10:55:31;2.55;;;0.95;;
49858;SDS011;35756;52.346;13.622;2022-08-06T10:57:58;1.23;;;0.88;;
49858;SDS011;35756;52.346;13.622;2022-08-06T11:00:23;2.30;;;1.23;;
49858;SDS011;35756;52.346;13.622;2022-08-06T11:02:52;3.75;;;1.08;;
49858;SDS011;35756;52.346;13.622;2022-08-06T11:05:48;2.30;;;0.90;;
49858;SDS011;35756;52.346;13.622;2022-08-06T11:16:28;1.80;;;1.00;;
49858;SDS011;35756;52.346;13.622;2022-08-06T11:24:09;1.70;;;1.00;;
49858;SDS011;35756;52.346;13.622;2022-08-06T11:26:35;2.30;;;1.20;;
49858;SDS011;35756;52.346;13.622;2022-08-06T11:29:02;1.48;;;1.05;;
49858;SDS011;35756;52.346;13.622;2022-08-06T11:31:33;4.38;;;3.45;;
49858;SDS011;35756;52.346;13.622;2022-08-06T11:34:04;5.15;;;4.10;;
49858;SDS011;35756;52.346;13.622;2022-08-06T11:36:42;4.75;;;3.15;;
49858;SDS011;35756;52.346;13.622;2022-08-06T11:39:09;3.35;;;2.28;;
49858;SDS011;35756;52.346;13.622;2022-08-06T11:41:43;2.85;;;1.80;;
49858;SDS011;35756;52.346;13.622;2022-08-06T11:44:10;2.67;;;1.70;;
49858;SDS011;35756;52.346;13.622;2022-08-06T11:46:38;2.35;;;1.70;;
49858;SDS011;35756;52.346;13.622;2022-08-06T11:51:56;2.72;;;1.45;;
49858;SDS011;35756;52.346;13.622;2022-08-06T11:59:26;2.40;;;1.55;;
49858;SDS011;35756;52.346;13.622;2022-08-06T12:02:06;2.50;;;1.25;;
49858;SDS011;35756;52.346;13.622;2022-08-06T12:07:20;2.70;;;1.55;;
49858;SDS011;35756;52.346;13.622;2022-08-06T12:14:58;2.38;;;1.30;;
49858;SDS011;35756;52.346;13.622;2022-08-06T12:17:26;2.13;;;1.02;;
49858;SDS011;35756;52.346;13.622;2022-08-06T12:19:54;2.33;;;1.25;;
49858;SDS011;35756;52.346;13.622;2022-08-06T12:22:22;5.20;;;1.42;;
49858;SDS011;35756;52.346;13.622;2022-08-06T12:24:50;1.45;;;1.10;;
49858;SDS011;35756;52.346;13.622;2022-08-06T12:27:19;1.23;;;1.02;;
49858;SDS011;35756;52.346;13.622;2022-08-06T12:29:44;1.33;;;1.08;;
49858;SDS011;35756;52.346;13.622;2022-08-06T12:32:19;1.50;;;1.10;;
49858;SDS011;35756;52.346;13.622;2022-08-06T12:34:46;1.42;;;1.13;;
49858;SDS011;35756;52.346;13.622;2022-08-06T12:37:11;1.85;;;1.20;;
49858;SDS011;35756;52.346;13.622;2022-08-06T12:39:39;2.92;;;0.95;;
49858;SDS011;35756;52.346;13.622;2022-08-06T12:42:24;1.77;;;0.98;;
49858;SDS011;35756;52.346;13.622;2022-08-06T12:44:50;1.27;;;0.90;;
49858;SDS011;35756;52.346;13.622;2022-08-06T12:47:15;2.03;;;0.98;;
49858;SDS011;35756;52.346;13.622;2022-08-06T12:49:41;1.83;;;0.90;;
49858;SDS011;35756;52.346;13.622;2022-08-06T12:52:16;1.40;;;1.00;;
49858;SDS011;35756;52.346;13.622;2022-08-06T12:54:44;1.55;;;0.98;;
49858;SDS011;35756;52.346;13.622;2022-08-06T12:57:19;2.70;;;1.13;;
49858;SDS011;35756;52.346;13.622;2022-08-06T12:59:45;1.65;;;1.13;;
49858;SDS011;35756;52.346;13.622;2022-08-06T13:02:11;1.33;;;0.75;;
49858;SDS011;35756;52.346;13.622;2022-08-06T13:04:37;2.45;;;0.93;;
49858;SDS011;35756;52.346;13.622;2022-08-06T13:07:02;1.40;;;0.80;;
49858;SDS011;35756;52.346;13.622;2022-08-06T13:09:29;1.33;;;1.00;;
49858;SDS011;35756;52.346;13.622;2022-08-06T13:11:55;1.02;;;0.70;;
49858;SDS011;35756;52.346;13.622;2022-08-06T13:14:20;1.67;;;1.02;;
49858;SDS011;35756;52.346;13.622;2022-08-06T13:16:47;1.08;;;0.82;;
49858;SDS011;35756;52.346;13.622;2022-08-06T13:19:14;1.23;;;0.93;;
49858;SDS011;35756;52.346;13.622;2022-08-06T13:21:41;1.20;;;0.80;;
49858;SDS011;35756;52.346;13.622;2022-08-06T13:24:08;2.45;;;1.00;;
49858;SDS011;35756;52.346;13.622;2022-08-06T13:26:34;1.63;;;1.00;;
49858;SDS011;35756;52.346;13.622;2022-08-06T13:29:13;1.40;;;0.90;;
49858;SDS011;35756;52.346;13.622;2022-08-06T13:31:44;0.73;;;0.73;;
49858;SDS011;35756;52.346;13.622;2022-08-06T13:34:10;1.92;;;0.95;;
49858;SDS011;35756;52.346;13.622;2022-08-06T13:36:38;1.63;;;1.00;;
49858;SDS011;35756;52.346;13.622;2022-08-06T13:39:21;0.95;;;0.82;;
49858;SDS011;35756;52.346;13.622;2022-08-06T13:41:47;0.80;;;0.80;;
49858;SDS011;35756;52.346;13.622;2022-08-06T13:44:43;3.05;;;1.25;;
49858;SDS011;35756;52.346;13.622;2022-08-06T13:47:10;2.70;;;1.10;;
49858;SDS011;35756;52.346;13.622;2022-08-06T13:49:38;0.90;;;0.82;;
49858;SDS011;35756;52.346;13.622;2022-08-06T13:52:05;1.33;;;0.82;;
49858;SDS011;35756;52.346;13.622;2022-08-06T13:54:31;2.47;;;1.08;;
49858;SDS011;35756;52.346;13.622;2022-08-06T13:56:56;1.83;;;1.10;;
49858;SDS011;35756;52.346;13.622;2022-08-06T13:59:24;2.25;;;0.98;;
49858;SDS011;35756;52.346;13.622;2022-08-06T14:01:51;1.35;;;1.00;;
49858;SDS011;35756;52.346;13.622;2022-08-06T14:04:17;1.75;;;0.90;;
49858;SDS011;35756;52.346;13.622;2022-08-06T14:06:47;7.88;;;1.40;;
49858;SDS011;35756;52.346;13.622;2022-08-06T14:09:13;3.42;;;1.25;;
49858;SDS011;35756;52.346;13.622;2022-08-06T14:11:39;4.30;;;1.23;;
49858;SDS011;35756;52.346;13.622;2022-08-06T14:14:04;5.25;;;1.25;;
49858;SDS011;35756;52.346;13.622;2022-08-06T14:16:30;2.10;;;0.82;;
49858;SDS011;35756;52.346;13.622;2022-08-06T14:18:55;1.45;;;0.95;;
49858;SDS011;35756;52.346;13.622;2022-08-06T14:21:20;1.15;;;0.90;;
49858;SDS011;35756;52.346;13.622;2022-08-06T14:23:46;1.15;;;0.70;;
49858;SDS011;35756;52.346;13.622;2022-08-06T14:26:11;1.40;;;0.80;;
49858;SDS011;35756;52.346;13.622;2022-08-06T14:28:37;1.70;;;0.90;;
49858;SDS011;35756;52.346;13.622;2022-08-06T14:31:02;2.55;;;0.90;;
49858;SDS011;35756;52.346;13.622;2022-08-06T14:33:27;2.58;;;1.23;;
49858;SDS011;35756;52.346;13.622;2022-08-06T14:35:55;1.77;;;0.85;;
49858;SDS011;35756;52.346;13.622;2022-08-06T14:38:20;2.67;;;1.08;;
49858;SDS011;35756;52.346;13.622;2022-08-06T14:40:46;2.22;;;1.05;;
49858;SDS011;35756;52.346;13.622;2022-08-06T14:43:30;2.35;;;0.98;;
49858;SDS011;35756;52.346;13.622;2022-08-06T14:46:14;1.23;;;0.88;;
49858;SDS011;35756;52.346;13.622;2022-08-06T14:48:39;3.15;;;1.08;;
49858;SDS011;35756;52.346;13.622;2022-08-06T14:51:04;1.13;;;0.80;;
49858;SDS011;35756;52.346;13.622;2022-08-06T14:53:30;1.35;;;0.90;;
49858;SDS011;35756;52.346;13.622;2022-08-06T14:55:55;1.95;;;1.45;;
49858;SDS011;35756;52.346;13.622;2022-08-06T14:58:20;5.88;;;0.90;;
49858;SDS011;35756;52.346;13.622;2022-08-06T15:00:46;2.53;;;0.90;;
49858;SDS011;35756;52.346;13.622;2022-08-06T15:03:13;2.65;;;1.15;;
49858;SDS011;35756;52.346;13.622;2022-08-06T15:05:40;1.55;;;0.80;;
49858;SDS011;35756;52.346;13.622;2022-08-06T15:08:07;0.80;;;0.60;;
49858;SDS011;35756;52.346;13.622;2022-08-06T15:10:32;1.40;;;0.95;;
49858;SDS011;35756;52.346;13.622;2022-08-06T15:12:57;1.02;;;0.77;;
49858;SDS011;35756;52.346;13.622;2022-08-06T15:15:23;1.45;;;0.95;;
49858;SDS011;35756;52.346;13.622;2022-08-06T15:17:48;1.55;;;0.90;;
49858;SDS011;35756;52.346;13.622;2022-08-06T15:20:13;1.70;;;0.80;;